Time;durP1;ratioP1;P1;durP2;ratioP2;P2;SDS_P1;SDS_P2;PMS_P1;PMS_P2;Temp;Humidity;BMP_temperature;BMP_pressure;BME280_temperature;BME280_humidity;BME280_pressure;Samples;Min_cycle;Max_cycle;Signal;HPM_P1;HPM_P2
2024/02/16 00:02:01;;;;;;;50.47;34.30;;;8.80;99.90;;;;;;5035280;28;20033;-69
2024/02/16 00:04:26;;;;;;;49.77;35.30;;;8.80;99.90;;;;;;5035165;28;20021;-69
2024/02/16 00:06:52;;;;;;;46.47;30.80;;;8.70;99.90;;;;;;5035258;28;20044;-69
2024/02/16 00:09:18;;;;;;;39.57;25.67;;;8.70;99.90;;;;;;5035133;28;20040;-69
2024/02/16 00:11:44;;;;;;;34.70;23.37;;;8.70;99.90;;;;;;5035560;28;20026;-69
2024/02/16 00:14:10;;;;;;;29.43;21.73;;;8.70;99.90;;;;;;5035167;28;20444;-69
2024/02/16 00:16:36;;;;;;;31.70;22.87;;;8.60;99.90;;;;;;5034991;28;20029;-69
2024/02/16 00:19:01;;;;;;;31.77;24.07;;;8.50;99.90;;;;;;5035009;28;20029;-69
2024/02/16 00:21:27;;;;;;;42.37;26.17;;;8.50;99.90;;;;;;5035055;28;20104;-69
2024/02/16 00:23:53;;;;;;;34.57;25.10;;;8.40;99.90;;;;;;5034557;28;20026;-69
2024/02/16 00:26:19;;;;;;;34.33;26.47;;;8.30;99.90;;;;;;5034682;28;20113;-69
2024/02/16 00:28:46;;;;;;;42.50;25.73;;;8.30;99.90;;;;;;5034996;28;20449;-68
2024/02/16 00:31:11;;;;;;;36.33;24.33;;;8.20;99.90;;;;;;5034621;28;20045;-69
2024/02/16 00:33:37;;;;;;;36.50;25.47;;;8.10;99.90;;;;;;5034587;28;20469;-68
2024/02/16 00:36:03;;;;;;;35.63;24.10;;;8.10;99.90;;;;;;5034900;28;20018;-69
2024/02/16 00:38:29;;;;;;;37.23;24.60;;;8.10;99.90;;;;;;5034611;28;20030;-69
2024/02/16 00:40:55;;;;;;;39.93;25.40;;;8.10;99.90;;;;;;5034767;28;20024;-68
2024/02/16 00:43:20;;;;;;;42.57;26.60;;;8.10;99.90;;;;;;5034607;28;20059;-68
2024/02/16 00:45:48;;;;;;;41.10;26.20;;;8.10;99.90;;;;;;5034538;28;20028;-68
2024/02/16 00:48:14;;;;;;;39.43;27.63;;;8.10;99.90;;;;;;5034528;28;20029;-69
2024/02/16 00:50:42;;;;;;;34.83;26.70;;;8.10;99.90;;;;;;5033608;28;20018;-69
2024/02/16 00:53:08;;;;;;;38.23;27.17;;;8.20;99.90;;;;;;5033930;28;20484;-69
2024/02/16 00:55:33;;;;;;;39.00;27.17;;;8.20;99.90;;;;;;5034094;28;20028;-69
2024/02/16 00:57:59;;;;;;;39.13;25.77;;;8.20;99.90;;;;;;5034341;28;20018;-69
2024/02/16 01:00:25;;;;;;;41.27;27.13;;;8.20;99.90;;;;;;5034336;28;20120;-69
2024/02/16 01:02:54;;;;;;;35.83;26.30;;;8.20;99.90;;;;;;5034393;28;20025;-69
2024/02/16 01:05:20;;;;;;;34.57;26.30;;;8.20;99.90;;;;;;5034242;28;20029;-69
2024/02/16 01:07:46;;;;;;;35.43;26.07;;;8.20;99.90;;;;;;5034148;28;20037;-69
2024/02/16 01:10:12;;;;;;;40.93;26.37;;;8.20;99.90;;;;;;5034426;28;20048;-69
2024/02/16 01:12:38;;;;;;;37.00;27.37;;;8.20;99.90;;;;;;5034152;28;20033;-69
2024/02/16 01:15:04;;;;;;;37.33;25.73;;;8.20;99.90;;;;;;5033773;28;20450;-69
2024/02/16 01:17:32;;;;;;;34.20;24.50;;;8.20;99.90;;;;;;5034563;28;20036;-69
2024/02/16 01:19:58;;;;;;;38.27;25.03;;;8.20;99.90;;;;;;5033872;28;20017;-69
2024/02/16 01:22:24;;;;;;;35.63;24.33;;;8.20;99.90;;;;;;5033976;28;20505;-69
2024/02/16 01:24:50;;;;;;;35.97;25.27;;;8.20;99.90;;;;;;5034278;28;20018;-69
2024/02/16 01:27:16;;;;;;;36.37;25.27;;;8.20;99.90;;;;;;5034154;28;20021;-69
2024/02/16 01:29:42;;;;;;;35.67;24.47;;;8.20;99.90;;;;;;5033851;28;20021;-69
2024/02/16 01:32:08;;;;;;;34.17;23.63;;;8.20;99.90;;;;;;5033904;28;20021;-68
2024/02/16 01:34:34;;;;;;;35.53;24.03;;;8.20;99.90;;;;;;5033522;28;20605;-69
2024/02/16 01:37:00;;;;;;;38.57;24.50;;;8.10;99.90;;;;;;5033740;28;20022;-69
2024/02/16 01:39:25;;;;;;;37.50;23.80;;;8.10;99.90;;;;;;5033732;28;20030;-69
2024/02/16 01:41:51;;;;;;;31.70;24.83;;;8.10;99.90;;;;;;5033349;28;20021;-69
2024/02/16 01:44:17;;;;;;;34.53;24.10;;;8.10;99.90;;;;;;5015738;28;20053;-68
2024/02/16 01:46:43;;;;;;;32.47;24.33;;;8.10;99.90;;;;;;5033838;28;20029;-69
2024/02/16 01:49:11;;;;;;;34.33;22.37;;;8.10;99.90;;;;;;5033778;28;20102;-69
2024/02/16 01:51:37;;;;;;;32.47;24.13;;;8.00;99.90;;;;;;5033245;28;20080;-69
2024/02/16 01:54:03;;;;;;;37.23;23.47;;;8.00;99.90;;;;;;5031794;28;20124;-69
2024/02/16 01:56:29;;;;;;;34.90;23.23;;;8.00;99.90;;;;;;5033049;28;20105;-69
2024/02/16 01:58:55;;;;;;;31.57;24.00;;;8.00;99.90;;;;;;5031196;28;20764;-69
2024/02/16 02:01:21;;;;;;;38.73;23.90;;;8.00;99.90;;;;;;5030647;28;20108;-69
2024/02/16 02:03:46;;;;;;;34.43;24.27;;;8.00;99.90;;;;;;5030731;28;20040;-69
2024/02/16 02:06:12;;;;;;;33.20;23.60;;;8.00;99.90;;;;;;5033156;28;20030;-69
2024/02/16 02:08:38;;;;;;;37.10;23.83;;;7.90;99.90;;;;;;5032600;28;20496;-69
2024/02/16 02:11:05;;;;;;;33.43;23.37;;;7.90;99.90;;;;;;5032797;28;20067;-69
2024/02/16 02:13:31;;;;;;;38.93;24.37;;;7.90;99.90;;;;;;5032267;28;20041;-69
2024/02/16 02:15:59;;;;;;;37.47;25.60;;;7.90;99.90;;;;;;5033511;28;20032;-69
2024/02/16 02:18:25;;;;;;;33.43;22.93;;;7.90;99.90;;;;;;5033024;28;20381;-69
2024/02/16 02:20:50;;;;;;;34.23;24.53;;;7.90;99.90;;;;;;5032845;28;20026;-69
2024/02/16 02:23:16;;;;;;;33.67;24.50;;;7.90;99.90;;;;;;5033123;28;20101;-69
2024/02/16 02:25:42;;;;;;;37.50;24.73;;;7.90;99.90;;;;;;5032653;28;20029;-69
2024/02/16 02:28:08;;;;;;;35.90;25.37;;;7.80;99.90;;;;;;5032627;28;20017;-69
2024/02/16 02:30:34;;;;;;;38.00;24.60;;;7.80;99.90;;;;;;5032909;28;20028;-69
2024/02/16 02:32:59;;;;;;;38.97;24.80;;;7.80;99.90;;;;;;5032907;28;20017;-69
2024/02/16 02:35:25;;;;;;;35.77;24.97;;;7.80;99.90;;;;;;5015066;28;20056;-69
2024/02/16 02:37:51;;;;;;;37.57;25.63;;;7.70;99.90;;;;;;5014800;28;20025;-69
2024/02/16 02:40:17;;;;;;;41.77;25.73;;;7.70;99.90;;;;;;5032468;28;20034;-69
2024/02/16 02:42:43;;;;;;;33.80;25.27;;;7.70;99.90;;;;;;5014912;28;20038;-69
2024/02/16 02:45:10;;;;;;;33.40;25.30;;;7.70;99.90;;;;;;5032507;28;20381;-69
2024/02/16 02:47:35;;;;;;;36.80;26.27;;;7.70;99.90;;;;;;5032564;28;20136;-69
2024/02/16 02:50:01;;;;;;;35.43;25.03;;;7.70;99.90;;;;;;5032693;28;20486;-69
2024/02/16 02:52:27;;;;;;;33.30;25.33;;;7.60;99.90;;;;;;5032626;28;20025;-69
2024/02/16 02:54:52;;;;;;;37.63;25.50;;;7.60;99.90;;;;;;5015083;28;20038;-69
2024/02/16 02:57:18;;;;;;;35.33;24.83;;;7.60;99.90;;;;;;5032756;28;20057;-69
2024/02/16 02:59:45;;;;;;;36.97;25.17;;;7.60;99.90;;;;;;5032648;28;20112;-69
2024/02/16 03:02:11;;;;;;;42.00;23.77;;;7.60;99.90;;;;;;5032512;28;20107;-69
2024/02/16 03:04:36;;;;;;;32.10;23.70;;;7.60;99.90;;;;;;5032481;28;20477;-68
2024/02/16 03:07:02;;;;;;;34.80;23.53;;;7.50;99.90;;;;;;5032424;28;20093;-69
2024/02/16 03:09:28;;;;;;;35.43;24.70;;;7.50;99.90;;;;;;5032286;28;20109;-69
2024/02/16 03:11:54;;;;;;;37.23;24.87;;;7.50;99.90;;;;;;5032021;28;20033;-69
2024/02/16 03:14:19;;;;;;;34.50;24.97;;;7.50;99.90;;;;;;5034137;28;20045;-69
2024/02/16 03:16:45;;;;;;;34.00;23.93;;;7.40;99.90;;;;;;5036521;28;20025;-68
2024/02/16 03:19:11;;;;;;;34.60;24.70;;;7.50;99.90;;;;;;5036511;28;20088;-69
2024/02/16 03:21:37;;;;;;;32.53;23.87;;;7.40;99.90;;;;;;5036433;28;20038;-69
2024/02/16 03:24:06;;;;;;;38.17;23.27;;;7.40;99.90;;;;;;5036115;28;20035;-69
2024/02/16 03:26:32;;;;;;;36.50;23.93;;;7.40;99.90;;;;;;5036219;28;20055;-69
2024/02/16 03:28:58;;;;;;;37.30;24.20;;;7.40;99.90;;;;;;5036246;28;20025;-69
2024/02/16 03:31:24;;;;;;;37.77;24.00;;;7.40;99.90;;;;;;5036231;28;20428;-69
2024/02/16 03:33:51;;;;;;;32.43;23.57;;;7.30;99.90;;;;;;5036110;28;20532;-68
2024/02/16 03:36:18;;;;;;;37.90;24.30;;;7.30;99.90;;;;;;5036116;28;20071;-69
2024/02/16 03:38:45;;;;;;;38.10;25.23;;;7.30;99.90;;;;;;5035719;28;20040;-69
2024/02/16 03:41:20;;;;;;;35.87;24.93;;;7.30;99.90;;;;;;5036178;28;20048;-69
2024/02/16 03:43:46;;;;;;;37.57;25.67;;;7.30;99.90;;;;;;5036068;28;20029;-68
2024/02/16 03:46:11;;;;;;;35.30;24.97;;;7.30;99.90;;;;;;5036029;28;20074;-69
2024/02/16 03:48:38;;;;;;;31.83;24.23;;;7.30;99.90;;;;;;5035919;28;20386;-69
2024/02/16 03:51:04;;;;;;;33.33;23.17;;;7.30;99.90;;;;;;5035477;28;20032;-69
2024/02/16 03:53:30;;;;;;;34.30;23.23;;;7.30;99.90;;;;;;5035468;28;20432;-69
2024/02/16 03:55:55;;;;;;;32.03;23.03;;;7.30;99.90;;;;;;5035369;28;20111;-69
2024/02/16 03:58:22;;;;;;;38.40;23.20;;;7.30;99.90;;;;;;5035822;28;20120;-69
2024/02/16 04:00:52;;;;;;;31.07;23.40;;;7.30;99.90;;;;;;5035714;28;20060;-69
2024/02/16 04:03:18;;;;;;;31.57;23.37;;;7.20;99.90;;;;;;5035851;28;20045;-69
2024/02/16 04:05:44;;;;;;;38.50;24.93;;;7.20;99.90;;;;;;5035779;28;20112;-69
2024/02/16 04:08:10;;;;;;;33.60;23.77;;;7.10;99.90;;;;;;5035863;28;20109;-69
2024/02/16 04:10:36;;;;;;;33.50;23.03;;;7.10;99.90;;;;;;5035711;28;20433;-69
2024/02/16 04:13:02;;;;;;;31.43;23.17;;;7.10;99.90;;;;;;5035261;28;20129;-69
2024/02/16 04:15:28;;;;;;;37.43;24.27;;;7.10;99.90;;;;;;5035483;28;20029;-69
2024/02/16 04:17:54;;;;;;;36.27;23.40;;;7.10;99.90;;;;;;5035492;28;20018;-69
2024/02/16 04:20:20;;;;;;;32.53;23.57;;;7.10;99.90;;;;;;5035225;28;20030;-69
2024/02/16 04:22:46;;;;;;;38.47;24.33;;;7.10;99.90;;;;;;5035227;28;20545;-69
2024/02/16 04:25:12;;;;;;;30.70;22.70;;;7.10;99.90;;;;;;5016072;28;20026;-69
2024/02/16 04:27:38;;;;;;;30.90;22.13;;;7.00;99.90;;;;;;5035240;28;20064;-69
2024/02/16 04:30:05;;;;;;;32.80;22.63;;;7.00;99.90;;;;;;5035431;28;20156;-69
2024/02/16 04:32:31;;;;;;;33.73;21.90;;;7.00;99.90;;;;;;5034906;28;20029;-69
2024/02/16 04:34:57;;;;;;;31.33;22.43;;;7.00;99.90;;;;;;5034844;28;20075;-68
2024/02/16 04:37:23;;;;;;;38.33;23.67;;;6.90;99.90;;;;;;5035045;28;20057;-69
2024/02/16 04:39:49;;;;;;;39.57;21.97;;;6.90;99.90;;;;;;5035347;28;20095;-69
2024/02/16 04:42:16;;;;;;;40.20;23.10;;;6.90;99.90;;;;;;5034929;28;20059;-69
2024/02/16 04:44:42;;;;;;;38.97;24.03;;;6.90;99.90;;;;;;5035007;28;20029;-70
2024/02/16 04:47:07;;;;;;;38.10;22.13;;;6.90;99.90;;;;;;5034929;28;20033;-69
2024/02/16 04:49:33;;;;;;;44.33;22.20;;;6.90;99.90;;;;;;5034691;28;20054;-69
2024/02/16 04:51:59;;;;;;;31.40;22.87;;;6.90;99.90;;;;;;5034137;28;20036;-69
2024/02/16 04:54:25;;;;;;;32.67;22.57;;;6.90;99.90;;;;;;5034386;28;20047;-69
2024/02/16 04:56:51;;;;;;;37.43;23.40;;;6.90;99.90;;;;;;5034800;28;20021;-69
2024/02/16 04:59:17;;;;;;;30.97;23.07;;;6.90;99.90;;;;;;5034267;28;20025;-69
2024/02/16 05:01:46;;;;;;;33.77;23.63;;;6.80;99.90;;;;;;5034456;28;20017;-69
2024/02/16 05:04:16;;;;;;;31.63;23.70;;;6.80;99.90;;;;;;5034494;28;20052;-69
2024/02/16 05:06:46;;;;;;;32.10;23.27;;;6.80;99.90;;;;;;5034519;28;20450;-69
2024/02/16 05:09:12;;;;;;;32.87;23.40;;;6.80;99.90;;;;;;5034127;28;20029;-69
2024/02/16 05:11:38;;;;;;;37.97;25.23;;;6.80;99.90;;;;;;5034268;28;20033;-69
2024/02/16 05:14:03;;;;;;;34.67;25.17;;;6.80;99.90;;;;;;5034057;28;20058;-68
2024/02/16 05:16:29;;;;;;;42.83;26.10;;;6.80;99.90;;;;;;5033833;28;20030;-68
2024/02/16 05:18:58;;;;;;;35.17;25.30;;;6.80;99.90;;;;;;5033938;28;20132;-69
2024/02/16 05:21:24;;;;;;;36.43;24.50;;;6.80;99.90;;;;;;5033984;28;20021;-69
2024/02/16 05:23:50;;;;;;;36.50;23.37;;;6.80;99.90;;;;;;5034023;28;20053;-69
2024/02/16 05:26:15;;;;;;;30.37;21.77;;;6.80;99.90;;;;;;5034002;28;20052;-69
2024/02/16 05:28:41;;;;;;;31.10;22.20;;;6.80;99.90;;;;;;5033832;28;20117;-69
2024/02/16 05:31:16;;;;;;;32.37;22.70;;;6.80;99.90;;;;;;5033969;28;20096;-69
2024/02/16 05:33:42;;;;;;;29.13;21.57;;;6.80;99.90;;;;;;5033610;28;20072;-68
2024/02/16 05:36:08;;;;;;;31.07;22.10;;;6.80;99.90;;;;;;5033237;28;20044;-68
2024/02/16 05:38:40;;;;;;;28.80;21.57;;;6.80;99.90;;;;;;5033480;28;20504;-69
2024/02/16 05:41:10;;;;;;;32.17;23.17;;;6.80;99.90;;;;;;5033789;28;20481;-69
2024/02/16 05:43:38;;;;;;;28.40;21.53;;;6.80;99.90;;;;;;5033748;28;20028;-69
2024/02/16 05:46:06;;;;;;;32.40;21.63;;;6.80;99.90;;;;;;5033349;28;20032;-69
2024/02/16 05:48:39;;;;;;;27.47;20.40;;;6.80;99.90;;;;;;5033439;28;20025;-69
2024/02/16 05:51:05;;;;;;;35.37;22.00;;;6.70;99.90;;;;;;5033414;28;20032;-69
2024/02/16 05:53:34;;;;;;;37.47;23.23;;;6.70;99.90;;;;;;5033446;28;20029;-69
2024/02/16 05:56:00;;;;;;;37.13;22.13;;;6.70;99.90;;;;;;5033603;28;20021;-69
2024/02/16 05:58:26;;;;;;;33.03;21.47;;;6.70;99.90;;;;;;5033125;28;20021;-68
2024/02/16 06:00:53;;;;;;;35.83;21.93;;;6.70;99.90;;;;;;5033556;28;20097;-68
2024/02/16 06:03:19;;;;;;;33.83;22.37;;;6.60;99.90;;;;;;5033323;28;20025;-68
2024/02/16 06:05:44;;;;;;;38.50;21.33;;;6.50;99.90;;;;;;5033386;28;20109;-68
2024/02/16 06:08:11;;;;;;;34.17;22.30;;;6.50;99.90;;;;;;5033156;28;20029;-68
2024/02/16 06:10:36;;;;;;;34.33;22.47;;;6.50;99.90;;;;;;5032715;28;20038;-69
2024/02/16 06:13:02;;;;;;;37.00;22.73;;;6.50;99.90;;;;;;5032907;28;20472;-68
2024/02/16 06:15:28;;;;;;;33.13;21.13;;;6.40;99.90;;;;;;5033069;28;20038;-68
2024/02/16 06:17:56;;;;;;;38.57;22.70;;;6.40;99.90;;;;;;5032611;28;20096;-69
2024/02/16 06:20:22;;;;;;;38.97;23.17;;;6.30;99.90;;;;;;5032932;28;20026;-68
2024/02/16 06:22:48;;;;;;;51.83;25.37;;;6.30;99.90;;;;;;5032396;28;20068;-69
2024/02/16 06:25:15;;;;;;;40.67;22.03;;;6.30;99.90;;;;;;5032816;28;20045;-68
2024/02/16 06:27:41;;;;;;;42.10;22.03;;;6.30;99.90;;;;;;5032713;28;20029;-68
2024/02/16 06:30:12;;;;;;;41.60;23.87;;;6.30;99.90;;;;;;5032748;28;20022;-68
2024/02/16 06:32:38;;;;;;;50.60;22.97;;;6.30;99.90;;;;;;5032035;28;20115;-69
2024/02/16 06:35:04;;;;;;;52.33;24.53;;;6.20;99.90;;;;;;5034257;28;20481;-69
2024/02/16 06:37:31;;;;;;;35.80;22.10;;;6.20;99.90;;;;;;5032481;28;20469;-69
2024/02/16 06:39:57;;;;;;;41.50;22.17;;;6.20;99.90;;;;;;5032738;28;20028;-69
2024/02/16 06:42:23;;;;;;;36.37;22.57;;;6.20;99.90;;;;;;5030941;28;20029;-68
2024/02/16 06:44:49;;;;;;;40.40;22.20;;;6.30;99.90;;;;;;5029229;28;20041;-69
2024/02/16 06:47:15;;;;;;;43.37;21.57;;;6.30;99.90;;;;;;5012964;28;20040;-68
2024/02/16 06:49:40;;;;;;;33.43;21.87;;;6.30;99.90;;;;;;5030355;28;20029;-69
2024/02/16 06:52:07;;;;;;;41.43;21.70;;;6.30;99.90;;;;;;5031519;28;20025;-69
2024/02/16 06:54:33;;;;;;;39.13;23.30;;;6.30;99.90;;;;;;5032125;28;20036;-69
2024/02/16 06:56:58;;;;;;;46.20;21.13;;;6.30;99.90;;;;;;5032475;28;20029;-68
2024/02/16 06:59:25;;;;;;;29.97;20.80;;;6.40;99.90;;;;;;5032277;28;20037;-68
2024/02/16 07:01:50;;;;;;;33.33;20.70;;;6.40;99.90;;;;;;5031775;28;20028;-69
2024/02/16 07:04:17;;;;;;;35.77;21.27;;;6.40;99.90;;;;;;5032322;28;20462;-69
2024/02/16 07:06:43;;;;;;;36.47;22.43;;;6.40;99.90;;;;;;5032053;28;20437;-68
2024/02/16 07:09:09;;;;;;;34.50;21.50;;;6.30;99.90;;;;;;5030795;28;20017;-68
2024/02/16 07:11:34;;;;;;;37.47;22.27;;;6.40;99.90;;;;;;5010118;28;20096;-68
2024/02/16 07:14:02;;;;;;;32.10;20.73;;;6.40;99.90;;;;;;5030485;28;20077;-68
2024/02/16 07:16:28;;;;;;;34.67;22.70;;;6.40;99.90;;;;;;5031519;28;20065;-68
2024/02/16 07:18:54;;;;;;;50.83;24.87;;;6.40;99.90;;;;;;5031515;28;20104;-69
2024/02/16 07:21:22;;;;;;;49.10;23.43;;;6.50;99.90;;;;;;5030945;28;20549;-68
2024/02/16 07:23:48;;;;;;;39.23;22.33;;;6.50;99.90;;;;;;5030917;28;20040;-68
2024/02/16 07:26:14;;;;;;;52.87;23.33;;;6.50;99.90;;;;;;5030654;28;20022;-68
2024/02/16 07:28:40;;;;;;;53.13;24.50;;;6.60;99.90;;;;;;5031964;28;20045;-69
2024/02/16 07:31:06;;;;;;;56.20;25.13;;;6.70;99.90;;;;;;5030936;28;20060;-69
2024/02/16 07:33:31;;;;;;;41.80;23.30;;;6.70;99.90;;;;;;5031506;28;20065;-68
2024/02/16 07:35:57;;;;;;;37.90;23.67;;;6.80;99.90;;;;;;5031886;28;20122;-68
2024/02/16 07:38:23;;;;;;;49.07;24.57;;;6.90;99.90;;;;;;5031990;28;20040;-69
2024/02/16 07:40:50;;;;;;;41.23;23.43;;;6.90;99.90;;;;;;5031181;28;20039;-68
2024/02/16 07:43:17;;;;;;;39.43;21.63;;;7.00;99.90;;;;;;5030723;28;20060;-68
2024/02/16 07:45:43;;;;;;;40.00;23.43;;;7.10;99.90;;;;;;5031729;28;20425;-68
2024/02/16 07:48:09;;;;;;;43.00;23.47;;;7.10;99.90;;;;;;5031309;28;20068;-68
2024/02/16 07:50:35;;;;;;;37.67;22.50;;;7.10;99.90;;;;;;5014197;28;20427;-68
2024/02/16 07:53:01;;;;;;;32.30;22.63;;;7.20;99.90;;;;;;5030791;28;20453;-68
2024/02/16 07:55:26;;;;;;;37.00;24.83;;;7.30;99.90;;;;;;5031988;28;20030;-68
2024/02/16 07:57:52;;;;;;;36.17;23.43;;;7.40;99.90;;;;;;5031205;28;20048;-69
2024/02/16 08:00:18;;;;;;;38.53;23.73;;;7.50;99.90;;;;;;5033573;28;20048;-69
2024/02/16 08:02:44;;;;;;;40.10;24.20;;;7.60;99.90;;;;;;5035244;28;20049;-68
2024/02/16 08:05:13;;;;;;;44.37;22.53;;;7.70;99.90;;;;;;5034134;28;20082;-69
2024/02/16 08:07:44;;;;;;;42.87;22.23;;;7.70;99.90;;;;;;5034515;28;20028;-69
2024/02/16 08:10:10;;;;;;;38.60;22.73;;;7.80;99.90;;;;;;5034883;28;20052;-69
2024/02/16 08:12:35;;;;;;;53.50;23.67;;;7.90;99.90;;;;;;5034378;28;20017;-69
2024/02/16 08:15:08;;;;;;;46.33;21.53;;;7.90;99.90;;;;;;5034503;28;20033;-69
2024/02/16 08:17:36;;;;;;;35.70;20.27;;;8.00;99.90;;;;;;5034746;28;20044;-70
2024/02/16 08:20:02;;;;;;;37.50;19.40;;;8.00;99.90;;;;;;5034855;28;20034;-69
2024/02/16 08:22:28;;;;;;;21.03;15.53;;;8.00;99.90;;;;;;5034243;28;20478;-69
2024/02/16 08:24:54;;;;;;;24.23;15.50;;;8.20;99.90;;;;;;5034962;28;20038;-69
2024/02/16 08:27:20;;;;;;;23.03;15.50;;;8.20;99.90;;;;;;5034196;28;20032;-69
2024/02/16 08:29:46;;;;;;;22.57;14.63;;;8.30;99.90;;;;;;5034468;28;20030;-70
2024/02/16 08:32:12;;;;;;;21.53;13.73;;;8.40;99.90;;;;;;5034410;28;20040;-68
2024/02/16 08:34:38;;;;;;;28.93;14.87;;;8.40;99.90;;;;;;5033931;28;20497;-68
2024/02/16 08:37:05;;;;;;;25.97;13.10;;;8.50;99.90;;;;;;5014294;28;20056;-67
2024/02/16 08:39:31;;;;;;;23.53;14.07;;;8.60;99.90;;;;;;5052449;28;20124;-69
2024/02/16 08:41:58;;;;;;;19.17;12.77;;;8.60;99.90;;;;;;5051267;28;20033;-70
2024/02/16 08:44:24;;;;;;;21.23;12.03;;;8.70;99.90;;;;;;5051825;28;20045;-69
2024/02/16 08:46:50;;;;;;;20.73;12.63;;;8.80;99.90;;;;;;5053910;28;20057;-68
2024/02/16 08:49:16;;;;;;;16.73;11.80;;;8.80;99.90;;;;;;5053977;28;20036;-70
2024/02/16 08:51:43;;;;;;;24.33;12.50;;;8.90;99.90;;;;;;5054138;28;20025;-67
2024/02/16 08:54:09;;;;;;;23.33;11.77;;;9.00;99.90;;;;;;5053679;28;20041;-71
2024/02/16 08:56:35;;;;;;;22.53;11.73;;;9.00;99.90;;;;;;5052804;28;20037;-70
2024/02/16 08:59:04;;;;;;;20.90;11.57;;;9.10;99.90;;;;;;5053152;28;20083;-69
2024/02/16 09:01:33;;;;;;;21.60;12.03;;;9.20;99.90;;;;;;5053712;28;20477;-70
2024/02/16 09:04:00;;;;;;;22.27;12.97;;;9.20;99.90;;;;;;5051347;28;20029;-69
2024/02/16 09:06:26;;;;;;;22.20;12.33;;;9.20;99.90;;;;;;5050880;28;20123;-69
2024/02/16 09:08:52;;;;;;;19.80;12.17;;;9.30;99.90;;;;;;5052205;28;20461;-69
2024/02/16 09:11:18;;;;;;;21.67;12.90;;;9.40;99.90;;;;;;5051173;28;20173;-69
2024/02/16 09:13:43;;;;;;;18.80;12.10;;;9.50;99.90;;;;;;5059435;22;20057;-69
2024/02/16 09:16:10;;;;;;;21.27;13.20;;;9.50;99.90;;;;;;5051311;28;20024;-69
2024/02/16 09:18:38;;;;;;;16.23;12.07;;;9.60;99.90;;;;;;5050648;28;20021;-69
2024/02/16 09:21:05;;;;;;;21.83;13.20;;;9.70;99.90;;;;;;5053802;28;20029;-69
2024/02/16 09:23:32;;;;;;;20.63;13.27;;;9.80;99.90;;;;;;5054020;28;20465;-69
2024/02/16 09:25:59;;;;;;;23.93;14.17;;;9.80;99.90;;;;;;5053608;28;20076;-69
2024/02/16 09:28:25;;;;;;;20.70;12.90;;;9.80;99.90;;;;;;5053436;28;20050;-69
2024/02/16 09:30:51;;;;;;;22.23;13.03;;;9.90;99.90;;;;;;5053408;28;20491;-69
2024/02/16 09:33:16;;;;;;;20.03;12.77;;;9.90;99.90;;;;;;5052727;28;20029;-69
2024/02/16 09:35:42;;;;;;;21.87;14.83;;;10.00;99.90;;;;;;5052753;28;20040;-69
2024/02/16 09:38:11;;;;;;;21.97;13.13;;;10.00;99.90;;;;;;5053580;28;20465;-68
2024/02/16 09:40:37;;;;;;;21.23;13.23;;;10.10;99.90;;;;;;5053335;28;20040;-69
2024/02/16 09:43:03;;;;;;;18.50;12.03;;;10.10;99.90;;;;;;5053259;28;20054;-69
2024/02/16 09:45:32;;;;;;;18.87;11.60;;;10.20;99.90;;;;;;5053670;28;20033;-69
2024/02/16 09:47:59;;;;;;;16.37;10.50;;;10.20;99.90;;;;;;5053579;28;20032;-69
2024/02/16 09:50:26;;;;;;;15.77;9.83;;;10.30;99.90;;;;;;5053390;28;20112;-69
2024/02/16 09:52:54;;;;;;;14.70;9.60;;;10.40;99.90;;;;;;5053298;28;20112;-68
2024/02/16 09:55:20;;;;;;;16.43;10.37;;;10.40;99.90;;;;;;5053340;28;20037;-69
2024/02/16 09:57:45;;;;;;;16.92;9.43;;;10.50;99.90;;;;;;5052329;28;20048;-69
2024/02/16 10:00:12;;;;;;;10.73;8.03;;;10.60;99.90;;;;;;5050777;28;20029;-69
2024/02/16 10:02:44;;;;;;;12.73;8.88;;;10.60;99.90;;;;;;5050879;28;20052;-69
2024/02/16 10:05:17;;;;;;;;;;;10.70;99.90;;;;;;5033694;28;20017;-69
2024/02/16 10:07:43;;;;;;;12.23;7.53;;;10.80;99.90;;;;;;5052620;28;20251;-69
2024/02/16 10:10:30;;;;;;;10.02;7.28;;;10.80;99.90;;;;;;5052817;28;20032;-69
2024/02/16 10:13:04;;;;;;;9.05;6.90;;;10.90;99.90;;;;;;5052842;28;20076;-68
2024/02/16 10:15:30;;;;;;;11.27;6.93;;;11.00;99.90;;;;;;5053287;28;20033;-69
2024/02/16 10:18:05;;;;;;;12.52;7.68;;;11.10;99.90;;;;;;5053424;28;20028;-69
2024/02/16 10:20:38;;;;;;;10.30;7.05;;;11.20;99.90;;;;;;5052760;28;20139;-69
2024/02/16 10:23:04;;;;;;;;;;;11.20;99.90;;;;;;5051977;28;20088;-69
2024/02/16 10:25:30;;;;;;;11.20;6.03;;;11.30;99.90;;;;;;5052272;28;19999;-69
2024/02/16 10:27:58;;;;;;;9.25;6.35;;;11.30;99.90;;;;;;5051710;28;20049;-69
2024/02/16 10:30:30;;;;;;;9.30;6.22;;;11.40;99.90;;;;;;5053123;28;20025;-69
2024/02/16 10:32:57;;;;;;;9.13;6.80;;;11.50;99.90;;;;;;5052788;28;20066;-69
2024/02/16 10:35:26;;;;;;;11.80;6.32;;;11.60;99.90;;;;;;5051861;28;20044;-69
2024/02/16 10:37:52;;;;;;;9.50;6.18;;;11.70;99.90;;;;;;5035137;28;20434;-69
2024/02/16 10:40:22;;;;;;;9.77;6.68;;;11.80;99.90;;;;;;5053013;28;20021;-69
2024/02/16 10:42:51;;;;;;;13.23;6.78;;;11.90;99.90;;;;;;5052759;28;20017;-69
2024/02/16 10:45:18;;;;;;;13.95;7.45;;;12.00;99.90;;;;;;5052749;28;20024;-69
2024/02/16 10:47:44;;;;;;;15.98;7.50;;;12.00;99.90;;;;;;5052704;28;20488;-69
2024/02/16 10:50:10;;;;;;;11.50;8.88;;;12.10;99.50;;;;;;5052356;28;20103;-69
2024/02/16 10:52:41;;;;;;;11.45;8.20;;;12.20;99.90;;;;;;5052619;28;20104;-69
2024/02/16 10:55:08;;;;;;;12.30;8.10;;;12.30;99.90;;;;;;5052301;28;20037;-69
2024/02/16 10:57:36;;;;;;;12.35;8.70;;;12.40;99.60;;;;;;5052698;28;20484;-69
2024/02/16 11:00:11;;;;;;;9.40;7.72;;;12.40;99.90;;;;;;5052778;28;20047;-69
2024/02/16 11:02:55;;;;;;;11.55;7.18;;;12.50;99.80;;;;;;5052354;28;20473;-68
2024/02/16 11:05:47;;;;;;;11.55;6.97;;;12.60;99.80;;;;;;5051824;28;20376;-69
2024/02/16 11:08:15;;;;;;;11.27;7.70;;;12.70;99.70;;;;;;5052377;28;20484;-69
2024/02/16 11:10:41;;;;;;;13.05;7.85;;;12.80;98.00;;;;;;5052750;28;20271;-69
2024/02/16 11:13:09;;;;;;;11.88;7.78;;;12.80;98.20;;;;;;5052292;28;20052;-69
2024/02/16 11:15:37;;;;;;;10.48;7.93;;;12.90;98.30;;;;;;5052466;28;20029;-69
2024/02/16 11:18:04;;;;;;;12.02;8.13;;;12.90;98.60;;;;;;5052348;28;20021;-69
2024/02/16 11:20:40;;;;;;;10.73;8.52;;;13.00;98.60;;;;;;5052677;28;20029;-69
2024/02/16 11:23:10;;;;;;;15.05;9.32;;;13.10;98.00;;;;;;5052331;28;20092;-69
2024/02/16 11:25:37;;;;;;;10.68;8.10;;;13.20;97.60;;;;;;5051661;28;20100;-70
2024/02/16 11:28:03;;;;;;;15.82;9.05;;;13.20;97.10;;;;;;5034560;28;20095;-69
2024/02/16 11:30:34;;;;;;;12.48;9.02;;;13.30;97.10;;;;;;5051575;28;20032;-70
2024/02/16 11:33:00;;;;;;;10.88;8.70;;;13.40;97.50;;;;;;5051976;28;20017;-70
2024/02/16 11:35:26;;;;;;;11.70;9.63;;;13.50;96.10;;;;;;5053717;28;20041;-69
2024/02/16 11:37:51;;;;;;;14.80;9.35;;;13.50;95.70;;;;;;5055432;28;20065;-69
2024/02/16 11:40:19;;;;;;;12.63;8.82;;;13.60;96.10;;;;;;5055983;28;20029;-69
2024/02/16 11:42:46;;;;;;;14.75;9.57;;;13.60;96.20;;;;;;5054469;28;20048;-69
2024/02/16 11:45:12;;;;;;;12.95;9.77;;;13.70;96.30;;;;;;5055659;28;20021;-69
2024/02/16 11:47:38;;;;;;;15.75;11.38;;;13.70;96.20;;;;;;5055945;28;20103;-69
2024/02/16 11:50:06;;;;;;;13.88;11.23;;;13.80;96.30;;;;;;5055588;28;20515;-70
2024/02/16 11:52:32;;;;;;;16.83;10.52;;;13.80;96.30;;;;;;5055658;28;20029;-69
2024/02/16 11:55:03;;;;;;;12.73;9.68;;;13.80;96.10;;;;;;5055577;28;20123;-69
2024/02/16 11:57:29;;;;;;;15.25;10.38;;;13.90;96.30;;;;;;5056119;28;20021;-69
2024/02/16 11:59:55;;;;;;;17.42;10.13;;;14.00;96.80;;;;;;5055952;28;20021;-69
2024/02/16 12:02:24;;;;;;;14.40;10.15;;;14.00;96.70;;;;;;5055568;28;20491;-69
2024/02/16 12:05:01;;;;;;;12.13;9.73;;;14.10;95.80;;;;;;5054834;28;20032;-69
2024/02/16 12:07:28;;;;;;;14.27;10.30;;;14.20;94.00;;;;;;5037865;28;20369;-69
2024/02/16 12:09:58;;;;;;;13.90;9.10;;;14.20;94.80;;;;;;5055213;28;20020;-69
2024/02/16 12:12:25;;;;;;;12.73;8.95;;;14.30;94.90;;;;;;5055504;28;20549;-70
2024/02/16 12:14:50;;;;;;;12.38;8.63;;;14.30;94.60;;;;;;5051890;28;20049;-69
2024/02/16 12:17:16;;;;;;;14.32;7.22;;;14.40;94.90;;;;;;5052407;28;20040;-69
2024/02/16 12:19:46;;;;;;;12.50;7.72;;;14.40;94.70;;;;;;5054954;28;20028;-69
2024/02/16 12:22:22;;;;;;;9.98;7.78;;;14.60;94.90;;;;;;5054842;28;20123;-68
2024/02/16 12:24:50;;;;;;;11.55;7.70;;;14.60;93.20;;;;;;5055014;28;20017;-69
2024/02/16 12:27:16;;;;;;;13.43;7.85;;;14.70;91.80;;;;;;5054562;28;20021;-70
2024/02/16 12:29:42;;;;;;;15.98;8.35;;;14.70;91.30;;;;;;5054712;28;20029;-69
2024/02/16 12:32:11;;;;;;;10.93;7.97;;;14.70;91.30;;;;;;5054549;28;20031;-69
2024/02/16 12:34:37;;;;;;;11.48;7.70;;;14.80;91.40;;;;;;5053777;28;20037;-70
2024/02/16 12:37:07;;;;;;;11.75;8.38;;;14.80;91.30;;;;;;5054849;28;20029;-69